Time;durP1;ratioP1;P1;durP2;ratioP2;P2;SDS_P1;SDS_P2;PMS_P1;PMS_P2;Temp;Humidity;BMP_temperature;BMP_pressure;BME280_temperature;BME280_humidity;BME280_pressure;Samples;Min_cycle;Max_cycle;Signal;HPM_P1;HPM_P2
2021/04/19 00:02:03;;;;;;;;;;;;;;;;;;5056059;28;19956;-77
2021/04/19 00:04:29;;;;;;;;;;;;;;;;;;5072459;28;19920;-77
2021/04/19 00:06:54;;;;;;;;;;;;;;;;;;5056603;28;20450;-77
2021/04/19 00:09:20;;;;;;;;;;;;;;;;;;5076297;28;19912;-77
2021/04/19 00:11:45;;;;;;;;;;;;;;;;;;5076146;28;19999;-77
2021/04/19 00:14:10;;;;;;;;;;;;;;;;;;5076312;28;20003;-78
2021/04/19 00:16:36;;;;;;;;;;;;;;;;;;5076716;28;20014;-78
2021/04/19 00:19:01;;;;;;;;;;;;;;;;;;5076164;28;19961;-78
2021/04/19 00:21:26;;;;;;;;;;;;;;;;;;5076392;28;19912;-77
2021/04/19 00:23:52;;;;;;;;;;;;;;;;;;5074329;28;19966;-77
2021/04/19 00:26:17;;;;;;;;;;;;;;;;;;5074676;28;19962;-77
2021/04/19 00:28:42;;;;;;;;;;;;;;;;;;5059162;28;19920;-77
2021/04/19 00:31:08;;;;;;;;;;;;;;;;;;5075461;28;19916;-77
2021/04/19 00:33:33;;;;;;;;;;;;;;;;;;5093112;28;19931;-77
2021/04/19 00:35:58;;;;;;;;;;;;;;;;;;5075579;28;19920;-77
2021/04/19 00:38:23;;;;;;;;;;;;;;;;;;5075811;28;19952;-78
2021/04/19 00:40:50;;;;;;;;;;;;;;;;;;5074853;28;19920;-78
2021/04/19 00:43:15;;;;;;;;;;;;;;;;;;5067338;28;19916;-77
2021/04/19 00:45:40;;;;;;;;;;;;;;;;;;5075538;28;19916;-77
2021/04/19 00:48:06;;;;;;;;;;;;;;;;;;5075888;28;19933;-77
2021/04/19 00:50:32;;;;;;;;;;;;;;;;;;5057992;28;19916;-78
2021/04/19 00:52:57;;;;;;;;;;;;;;;;;;5075004;28;20019;-78
2021/04/19 00:55:23;;;;;;;;;;;;;;;;;;5075347;28;20830;-77
2021/04/19 00:57:48;;;;;;;;;;;;;;;;;;5075558;28;19920;-77
2021/04/19 01:00:19;;;;;;;;;;;;;;;;;;5075637;28;19927;-78
2021/04/19 01:02:44;;;;;;;;;;;;;;;;;;5075466;28;19920;-78
2021/04/19 01:05:10;;;;;;;;;;;;;;;;;;5074979;28;19919;-77
2021/04/19 01:07:36;;;;;;;;;;;;;;;;;;5075105;28;20281;-78
2021/04/19 01:10:01;;;;;;;;;;;;;;;;;;5075374;28;19912;-77
2021/04/19 01:12:26;;;;;;;;;;;;;;;;;;5074931;28;19945;-78
2021/04/19 01:14:51;;;;;;;;;;;;;;;;;;5074656;28;19916;-78
2021/04/19 01:17:17;;;;;;;;;;;;;;;;;;5057670;28;19916;-77
2021/04/19 01:19:42;;;;;;;;;;;;;;;;;;5074242;28;19916;-77
2021/04/19 01:22:07;;;;;;;;;;;;;;;;;;5074449;28;19919;-77
2021/04/19 01:24:33;;;;;;;;;;;;;;;;;;5074732;28;19927;-77
2021/04/19 01:26:58;;;;;;;;;;;;;;;;;;5074789;28;20516;-77
2021/04/19 01:29:23;;;;;;;;;;;;;;;;;;5083230;28;19920;-77
2021/04/19 01:31:49;;;;;;;;;;;;;;;;;;5073855;28;20023;-77
2021/04/19 01:34:14;;;;;;;;;;;;;;;;;;5065182;28;20366;-77
2021/04/19 01:36:39;;;;;;;;;;;;;;;;;;5073945;28;19916;-78
2021/04/19 01:39:05;;;;;;;;;;;;;;;;;;5074682;28;19912;-78
2021/04/19 01:41:31;;;;;;;;;;;;;;;;;;5074911;28;19919;-78
2021/04/19 01:43:56;;;;;;;;;;;;;;;;;;5074946;28;19955;-77
2021/04/19 01:46:22;;;;;;;;;;;;;;;;;;5057517;28;19951;-77
2021/04/19 01:48:47;;;;;;;;;;;;;;;;;;5057847;28;19946;-78
2021/04/19 01:51:12;;;;;;;;;;;;;;;;;;5074123;28;19959;-77
2021/04/19 01:53:38;;;;;;;;;;;;;;;;;;5074027;28;19916;-77
2021/04/19 01:56:03;;;;;;;;;;;;;;;;;;5074453;28;19931;-78
2021/04/19 01:58:28;;;;;;;;;;;;;;;;;;5073994;28;19990;-77
2021/04/19 02:00:57;;;;;;;;;;;;;;;;;;5082492;28;19966;-78
2021/04/19 02:03:25;;;;;;;;;;;;;;;;;;5074398;28;19920;-77
2021/04/19 02:06:03;;;;;;;;;;;;;;;;;;5090173;28;19969;-77
2021/04/19 02:08:31;;;;;;;;;;;;;;;;;;5073684;28;19912;-77
2021/04/19 02:10:58;;;;;;;;;;;;;;;;;;5091609;28;19912;-77
2021/04/19 02:13:26;;;;;;;;;;;;;;;;;;5056153;28;19927;-77
2021/04/19 02:16:12;;;;;;;;;;;;;;;;;;5073398;28;20010;-78
2021/04/19 02:18:56;;;;;;;;;;;;;;;;;;5073151;28;19919;-78
2021/04/19 02:21:39;;;;;;;;;;;;;;;;;;5098553;28;19937;-77
2021/04/19 02:24:06;;;;;;;;;;;;;;;;;;5040615;28;19920;-78
2021/04/19 02:26:33;;;;;;;;;;;;;;;;;;5056763;28;20285;-77
2021/04/19 02:29:01;;;;;;;;;;;;;;;;;;5073673;28;19924;-78
2021/04/19 02:31:26;;;;;;;;;;;;;;;;;;5072991;28;19912;-77
2021/04/19 02:33:51;;;;;;;;;;;;;;;;;;5073180;28;19919;-77
2021/04/19 02:36:17;;;;;;;;;;;;;;;;;;5073414;28;19919;-78
2021/04/19 02:38:43;;;;;;;;;;;;;;;;;;5056823;28;19916;-77
2021/04/19 02:41:09;;;;;;;;;;;;;;;;;;5064641;28;20066;-77
2021/04/19 02:43:35;;;;;;;;;;;;;;;;;;5073622;28;19931;-77
2021/04/19 02:46:00;;;;;;;;;;;;;;;;;;5056188;28;19916;-77
2021/04/19 02:48:26;;;;;;;;;;;;;;;;;;5072935;28;19912;-78
2021/04/19 02:50:51;;;;;;;;;;;;;;;;;;5073311;28;19912;-78
2021/04/19 02:53:17;;;;;;;;;;;;;;;;;;5056506;28;20385;-78
2021/04/19 02:55:42;;;;;;;;;;;;;;;;;;5073217;28;19914;-78
2021/04/19 02:58:08;;;;;;;;;;;;;;;;;;5056576;28;19965;-78
2021/04/19 03:00:35;;;;;;;;;;;;;;;;;;5073232;28;19920;-78
2021/04/19 03:03:01;;;;;;;;;;;;;;;;;;5063619;28;19921;-78
2021/04/19 03:05:26;;;;;;;;;;;;;;;;;;5073212;28;19915;-78
2021/04/19 03:07:57;;;;;;;;;;;;;;;;;;5064062;28;19917;-78
2021/04/19 03:10:22;;;;;;;;;;;;;;;;;;5072069;28;19944;-78
2021/04/19 03:12:49;;;;;;;;;;;;;;;;;;5072904;28;19917;-78
2021/04/19 03:15:16;;;;;;;;;;;;;;;;;;5071540;28;20519;-77
2021/04/19 03:17:41;;;;;;;;;;;;;;;;;;5055162;28;20021;-77
2021/04/19 03:20:22;;;;;;;;;;;;;;;;;;5073569;28;19944;-77
2021/04/19 03:22:48;;;;;;;;;;;;;;;;;;5072658;28;19920;-77
2021/04/19 03:25:13;;;;;;;;;;;;;;;;;;5073282;28;19924;-77
2021/04/19 03:27:39;;;;;;;;;;;;;;;;;;5072978;28;19947;-78
2021/04/19 03:30:05;;;;;;;;;;;;;;;;;;5055955;28;20312;-77
2021/04/19 03:32:35;;;;;;;;;;;;;;;;;;5072143;28;19915;-78
2021/04/19 03:35:04;;;;;;;;;;;;;;;;;;5054885;28;20369;-77
2021/04/19 03:37:30;;;;;;;;;;;;;;;;;;5071709;28;19984;-78
2021/04/19 03:40:00;;;;;;;;;;;;;;;;;;5064540;28;20369;-78
2021/04/19 03:42:25;;;;;;;;;;;;;;;;;;5075409;28;19927;-77
2021/04/19 03:44:50;;;;;;;;;;;;;;;;;;5076826;28;19970;-77
2021/04/19 03:47:15;;;;;;;;;;;;;;;;;;5076412;28;19912;-77
2021/04/19 03:49:42;;;;;;;;;;;;;;;;;;5076830;28;19916;-78
2021/04/19 03:52:09;;;;;;;;;;;;;;;;;;5076658;28;19965;-78
2021/04/19 03:54:35;;;;;;;;;;;;;;;;;;5076607;28;19994;-78
2021/04/19 03:57:01;;;;;;;;;;;;;;;;;;5059518;28;20002;-78
2021/04/19 03:59:26;;;;;;;;;;;;;;;;;;5076115;28;19919;-78
2021/04/19 04:01:52;;;;;;;;;;;;;;;;;;5059508;28;19967;-78
2021/04/19 04:04:17;;;;;;;;;;;;;;;;;;5058782;28;19923;-77
2021/04/19 04:06:43;;;;;;;;;;;;;;;;;;5075978;28;19912;-77
2021/04/19 04:09:08;;;;;;;;;;;;;;;;;;5059251;28;19927;-78
2021/04/19 04:11:33;;;;;;;;;;;;;;;;;;5076085;28;19924;-77
2021/04/19 04:13:59;;;;;;;;;;;;;;;;;;5076214;28;20029;-77
2021/04/19 04:16:24;;;;;;;;;;;;;;;;;;5066187;28;19924;-77
2021/04/19 04:18:49;;;;;;;;;;;;;;;;;;5059057;28;19967;-78
2021/04/19 04:21:15;;;;;;;;;;;;;;;;;;5059337;28;20003;-77
2021/04/19 04:23:40;;;;;;;;;;;;;;;;;;5076103;28;19967;-78
2021/04/19 04:26:05;;;;;;;;;;;;;;;;;;5059436;28;19919;-78
2021/04/19 04:28:31;;;;;;;;;;;;;;;;;;5075666;28;19923;-78
2021/04/19 04:30:56;;;;;;;;;;;;;;;;;;5075455;28;19923;-78
2021/04/19 04:33:21;;;;;;;;;;;;;;;;;;5059182;28;19940;-77
2021/04/19 04:35:46;;;;;;;;;;;;;;;;;;5075685;28;19908;-78
2021/04/19 04:38:12;;;;;;;;;;;;;;;;;;5084098;28;19919;-78
2021/04/19 04:40:37;;;;;;;;;;;;;;;;;;5075889;28;19915;-78
2021/04/19 04:43:07;;;;;;;;;;;;;;;;;;5075494;28;19973;-76
2021/04/19 04:45:32;;;;;;;;;;;;;;;;;;5074462;28;19916;-78
2021/04/19 04:48:01;;;;;;;;;;;;;;;;;;5073382;28;20298;-79
2021/04/19 04:50:39;;;;;;;;;;;;;;;;;;5056291;28;19951;-79
2021/04/19 04:53:18;;;;;;;;;;;;;;;;;;5072816;28;19930;-81
2021/04/19 04:55:43;;;;;;;;;;;;;;;;;;5075613;28;19977;-81
2021/04/19 04:58:09;;;;;;;;;;;;;;;;;;5058025;28;19924;-82
2021/04/19 05:00:36;;;;;;;;;;;;;;;;;;5074226;28;20357;-81
2021/04/19 05:03:02;;;;;;;;;;;;;;;;;;5075198;28;19912;-81
2021/04/19 05:05:27;;;;;;;;;;;;;;;;;;5075047;28;19955;-80
2021/04/19 05:07:53;;;;;;;;;;;;;;;;;;5058535;28;20377;-80
2021/04/19 05:10:18;;;;;;;;;;;;;;;;;;5083163;28;20389;-81
2021/04/19 05:12:44;;;;;;;;;;;;;;;;;;5058314;28;19928;-82
2021/04/19 05:15:12;;;;;;;;;;;;;;;;;;5072411;28;20432;-81
2021/04/19 05:17:37;;;;;;;;;;;;;;;;;;5073471;28;19920;-82
2021/04/19 05:20:04;;;;;;;;;;;;;;;;;;5075187;28;20392;-81
2021/04/19 05:22:29;;;;;;;;;;;;;;;;;;5055983;28;19931;-81
2021/04/19 05:24:54;;;;;;;;;;;;;;;;;;5074274;28;19923;-81
2021/04/19 05:27:20;;;;;;;;;;;;;;;;;;5074717;28;19912;-82
2021/04/19 05:29:45;;;;;;;;;;;;;;;;;;5074962;28;19919;-79
2021/04/19 05:32:11;;;;;;;;;;;;;;;;;;5073639;28;19920;-78
2021/04/19 05:34:39;;;;;;;;;;;;;;;;;;5074432;28;20388;-79
2021/04/19 05:37:05;;;;;;;;;;;;;;;;;;5081351;28;19920;-79
2021/04/19 05:39:33;;;;;;;;;;;;;;;;;;5057614;28;19912;-78
2021/04/19 05:41:59;;;;;;;;;;;;;;;;;;5057776;28;19912;-79
2021/04/19 05:44:25;;;;;;;;;;;;;;;;;;5073876;28;20663;-79
2021/04/19 05:46:51;;;;;;;;;;;;;;;;;;5056811;28;19912;-78
2021/04/19 05:49:16;;;;;;;;;;;;;;;;;;5073592;28;20254;-79
2021/04/19 05:51:42;;;;;;;;;;;;;;;;;;5072259;28;19916;-79
2021/04/19 05:54:07;;;;;;;;;;;;;;;;;;5074429;28;19927;-78
2021/04/19 05:56:39;;;;;;;;;;;;;;;;;;5056888;28;19920;-78
2021/04/19 05:59:23;;;;;;;;;;;;;;;;;;5073909;28;19934;-79
2021/04/19 06:01:49;;;;;;;;;;;;;;;;;;5097334;28;19924;-79
2021/04/19 06:04:14;;;;;;;;;;;;;;;;;;5072984;28;19928;-79
2021/04/19 06:06:42;;;;;;;;;;;;;;;;;;5073821;28;19998;-80
2021/04/19 06:09:07;;;;;;;;;;;;;;;;;;5057342;28;19912;-81
2021/04/19 06:11:39;;;;;;;;;;;;;;;;;;5090663;28;19920;-80
2021/04/19 06:14:04;;;;;;;;;;;;;;;;;;5073930;28;19928;-80
2021/04/19 06:16:30;;;;;;;;;;;;;;;;;;5072945;28;19924;-78
2021/04/19 06:18:55;;;;;;;;;;;;;;;;;;5073880;28;19978;-78
2021/04/19 06:21:20;;;;;;;;;;;;;;;;;;5055740;28;19962;-78
2021/04/19 06:23:46;;;;;;;;;;;;;;;;;;5053998;28;19912;-78
2021/04/19 06:26:11;;;;;;;;;;;;;;;;;;5070446;28;19920;-78
2021/04/19 06:28:36;;;;;;;;;;;;;;;;;;5057043;28;19919;-78
2021/04/19 06:31:02;;;;;;;;;;;;;;;;;;5056933;28;19969;-78
2021/04/19 06:33:29;;;;;;;;;;;;;;;;;;5073731;28;19912;-78
2021/04/19 06:35:55;;;;;;;;;;;;;;;;;;5073140;28;20377;-79
2021/04/19 06:38:20;;;;;;;;;;;;;;;;;;5072620;28;19923;-79
2021/04/19 06:40:45;;;;;;;;;;;;;;;;;;5072866;28;19912;-79
2021/04/19 06:43:10;;;;;;;;;;;;;;;;;;5073663;28;19920;-78
2021/04/19 06:45:36;;;;;;;;;;;;;;;;;;5072714;28;20077;-79
2021/04/19 06:48:05;;;;;;;;;;;;;;;;;;5055995;28;19920;-79
2021/04/19 06:50:31;;;;;;;;;;;;;;;;;;5072707;28;19912;-79
2021/04/19 06:52:56;;;;;;;;;;;;;;;;;;5073008;28;20006;-78
2021/04/19 06:55:21;;;;;;;;;;;;;;;;;;5073178;28;19916;-79
2021/04/19 06:57:53;;;;;;;;;;;;;;;;;;5073296;28;19920;-79
2021/04/19 07:00:19;;;;;;;;;;;;;;;;;;5072066;28;19928;-79
2021/04/19 07:02:49;;;;;;;;;;;;;;;;;;5072323;28;20373;-79
2021/04/19 07:05:16;;;;;;;;;;;;;;;;;;5072959;28;20488;-79
2021/04/19 07:07:54;;;;;;;;;;;;;;;;;;5072330;28;19916;-78
2021/04/19 07:10:19;;;;;;;;;;;;;;;;;;5089518;28;19959;-79
2021/04/19 07:12:44;;;;;;;;;;;;;;;;;;5072085;28;20354;-79
2021/04/19 07:15:10;;;;;;;;;;;;;;;;;;5072073;28;19928;-79
2021/04/19 07:17:35;;;;;;;;;;;;;;;;;;5072322;28;19919;-80
2021/04/19 07:20:00;;;;;;;;;;;;;;;;;;5073064;28;19919;-78
2021/04/19 07:22:26;;;;;;;;;;;;;;;;;;5072615;28;19912;-80
2021/04/19 07:24:51;;;;;;;;;;;;;;;;;;5072344;28;19958;-79
2021/04/19 07:27:16;;;;;;;;;;;;;;;;;;5072536;28;19966;-78
2021/04/19 07:29:42;;;;;;;;;;;;;;;;;;5080996;28;19961;-78
2021/04/19 07:32:07;;;;;;;;;;;;;;;;;;5072447;28;19912;-78
2021/04/19 07:34:32;;;;;;;;;;;;;;;;;;5055764;28;19966;-78
2021/04/19 07:37:01;;;;;;;;;;;;;;;;;;5072642;28;20425;-81
2021/04/19 07:39:27;;;;;;;;;;;;;;;;;;5072000;28;19920;-80
2021/04/19 07:42:00;;;;;;;;;;;;;;;;;;5056013;28;20029;-77
2021/04/19 07:44:34;;;;;;;;;;;;;;;;;;5054876;28;20290;-80
2021/04/19 07:47:23;;;;;;;;;;;;;;;;;;5072825;28;20011;-80
2021/04/19 07:49:55;;;;;;;;;;;;;;;;;;5053235;28;20010;-79
2021/04/19 07:52:20;;;;;;;;;;;;;;;;;;5071595;28;19920;-79
2021/04/19 07:54:45;;;;;;;;;;;;;;;;;;5071914;28;19923;-79
2021/04/19 07:57:12;;;;;;;;;;;;;;;;;;5070373;28;19920;-80
2021/04/19 07:59:37;;;;;;;;;;;;;;;;;;5070290;28;19912;-79
2021/04/19 08:02:06;;;;;;;;;;;;;;;;;;5070916;28;19935;-78
2021/04/19 08:04:32;;;;;;;;;;;;;;;;;;5071541;28;19912;-79
2021/04/19 08:06:58;;;;;;;;;;;;;;;;;;5071943;28;19913;-79
2021/04/19 08:09:24;;;;;;;;;;;;;;;;;;5072587;28;19912;-78
2021/04/19 08:11:51;;;;;;;;;;;;;;;;;;5071321;28;20183;-79
2021/04/19 08:14:16;;;;;;;;;;;;;;;;;;5062341;28;19920;-78
2021/04/19 08:16:42;;;;;;;;;;;;;;;;;;5072041;28;19916;-78
2021/04/19 08:19:07;;;;;;;;;;;;;;;;;;5055220;28;19919;-79
2021/04/19 08:21:33;;;;;;;;;;;;;;;;;;5072486;28;19912;-78
2021/04/19 08:24:13;;;;;;;;;;;;;;;;;;5054170;28;19923;-77
2021/04/19 08:26:52;;;;;;;;;;;;;;;;;;5072095;28;19913;-78
2021/04/19 08:29:36;;;;;;;;;;;;;;;;;;5074607;28;19916;-78
2021/04/19 08:32:02;;;;;;;;;;;;;;;;;;5096117;28;19912;-78
2021/04/19 08:34:27;;;;;;;;;;;;;;;;;;5057484;28;19912;-78
2021/04/19 08:36:53;;;;;;;;;;;;;;;;;;5072272;28;19927;-78
2021/04/19 08:39:18;;;;;;;;;;;;;;;;;;5058733;28;19922;-78
2021/04/19 08:41:43;;;;;;;;;;;;;;;;;;5058714;28;20026;-78
2021/04/19 08:44:09;;;;;;;;;;;;;;;;;;5057155;28;19924;-78
2021/04/19 08:46:34;;;;;;;;;;;;;;;;;;5075476;28;19924;-78
2021/04/19 08:48:59;;;;;;;;;;;;;;;;;;5082649;28;19919;-79
2021/04/19 08:51:26;;;;;;;;;;;;;;;;;;5075093;28;19927;-78
2021/04/19 08:53:52;;;;;;;;;;;;;;;;;;5057874;28;19916;-78
2021/04/19 08:56:17;;;;;;;;;;;;;;;;;;5075439;28;19948;-77
2021/04/19 08:58:43;;;;;;;;;;;;;;;;;;5075343;28;19955;-77
2021/04/19 09:01:08;;;;;;;;;;;;;;;;;;5075841;28;19916;-77
2021/04/19 09:03:34;;;;;;;;;;;;;;;;;;5074483;28;19959;-76
2021/04/19 09:05:59;;;;;;;;;;;;;;;;;;5074734;28;19927;-76
2021/04/19 09:08:24;;;;;;;;;;;;;;;;;;5074137;28;19973;-77
2021/04/19 09:10:50;;;;;;;;;;;;;;;;;;5058262;28;19916;-76
2021/04/19 09:13:34;;;;;;;;;;;;;;;;;;5058281;28;19916;-76
2021/04/19 09:16:06;;;;;;;;;;;;;;;;;;5092402;28;20006;-76
2021/04/19 09:18:31;;;;;;;;;;;;;;;;;;5090588;28;19916;-76
2021/04/19 09:20:57;;;;;;;;;;;;;;;;;;5074985;28;20286;-76
2021/04/19 09:23:26;;;;;;;;;;;;;;;;;;5091781;28;19919;-76
2021/04/19 09:25:52;;;;;;;;;;;;;;;;;;5072132;28;20556;-76
2021/04/19 09:28:37;;;;;;;;;;;;;;;;;;5056828;28;19974;-76
2021/04/19 09:31:03;;;;;;;;;;;;;;;;;;5068919;28;19966;-76
2021/04/19 09:33:28;;;;;;;;;;;;;;;;;;5074214;28;20373;-76
2021/04/19 09:35:54;;;;;;;;;;;;;;;;;;5072983;28;19928;-76
2021/04/19 09:38:37;;;;;;;;;;;;;;;;;;5074433;28;19927;-77
2021/04/19 09:41:12;;;;;;;;;;;;;;;;;;5091339;28;19928;-76
2021/04/19 09:43:38;;;;;;;;;;;;;;;;;;5066091;28;19938;-76
2021/04/19 09:46:03;;;;;;;;;;;;;;;;;;5091111;28;20468;-76
2021/04/19 09:48:28;;;;;;;;;;;;;;;;;;5091076;28;19912;-76
2021/04/19 09:50:54;;;;;;;;;;;;;;;;;;5098903;28;19931;-76
2021/04/19 09:53:19;;;;;;;;;;;;;;;;;;5092854;28;19943;-76
2021/04/19 09:55:46;;;;;;;;;;;;;;;;;;5056145;28;21393;-77
2021/04/19 09:58:11;;;;;;;;;;;;;;;;;;5073892;28;19958;-76
2021/04/19 10:00:36;;;;;;;;;;;;;;;;;;5065650;28;20019;-76
2021/04/19 10:03:02;;;;;;;;;;;;;;;;;;5073779;28;19951;-76
2021/04/19 10:05:27;;;;;;;;;;;;;;;;;;5072507;28;19938;-76
2021/04/19 10:07:52;;;;;;;;;;;;;;;;;;5056750;28;19919;-76
2021/04/19 10:10:18;;;;;;;;;;;;;;;;;;5073712;28;20027;-76
2021/04/19 10:12:47;;;;;;;;;;;;;;;;;;5073651;28;20045;-76
2021/04/19 10:15:16;;;;;;;;;;;;;;;;;;5057052;28;19938;-76
2021/04/19 10:17:41;;;;;;;;;;;;;;;;;;5056246;28;20019;-77
2021/04/19 10:20:33;;;;;;;;;;;;;;;;;;5073640;28;19998;-76
2021/04/19 10:23:08;;;;;;;;;;;;;;;;;;5055898;28;19998;-76
2021/04/19 10:25:34;;;;;;;;;;;;;;;;;;5072678;28;19916;-77
2021/04/19 10:27:59;;;;;;;;;;;;;;;;;;5073503;28;19920;-76
2021/04/19 10:30:25;;;;;;;;;;;;;;;;;;5056085;28;19922;-76
2021/04/19 10:32:50;;;;;;;;;;;;;;;;;;5065140;28;19970;-76
2021/04/19 10:35:28;;;;;;;;;;;;;;;;;;5056540;28;19919;-77
2021/04/19 10:37:53;;;;;;;;;;;;;;;;;;5073802;28;19912;-76
2021/04/19 10:40:19;;;;;;;;;;;;;;;;;;5073173;28;19927;-77
2021/04/19 10:42:44;;;;;;;;;;;;;;;;;;5073092;28;19928;-76
2021/04/19 10:45:09;;;;;;;;;;;;;;;;;;5070518;28;19985;-76
2021/04/19 10:47:35;;;;;;;;;;;;;;;;;;5071776;28;19931;-76
2021/04/19 10:50:00;;;;;;;;;;;;;;;;;;5071393;28;20265;-76
2021/04/19 10:52:25;;;;;;;;;;;;;;;;;;5071237;28;19916;-76
2021/04/19 10:54:51;;;;;;;;;;;;;;;;;;5070233;28;19916;-76
2021/04/19 10:57:26;;;;;;;;;;;;;;;;;;5071157;28;19919;-76
2021/04/19 10:59:53;;;;;;;;;;;;;;;;;;5071893;28;19958;-76
2021/04/19 11:02:25;;;;;;;;;;;;;;;;;;5054358;28;20386;-77
2021/04/19 11:04:50;;;;;;;;;;;;;;;;;;5072751;28;19920;-77
2021/04/19 11:07:25;;;;;;;;;;;;;;;;;;5073023;28;19913;-76
2021/04/19 11:10:10;;;;;;;;;;;;;;;;;;5054056;28;19931;-76
2021/04/19 11:12:35;;;;;;;;;;;;;;;;;;5089742;28;19924;-76
2021/04/19 11:15:07;;;;;;;;;;;;;;;;;;5072093;28;19969;-76
2021/04/19 11:17:33;;;;;;;;;;;;;;;;;;5072398;28;19912;-76
2021/04/19 11:19:58;;;;;;;;;;;;;;;;;;5055931;28;19919;-76
2021/04/19 11:22:25;;;;;;;;;;;;;;;;;;5071417;28;20059;-76
2021/04/19 11:24:51;;;;;;;;;;;;;;;;;;5071507;28;19931;-76
2021/04/19 11:27:26;;;;;;;;;;;;;;;;;;5070688;28;19912;-76
2021/04/19 11:29:51;;;;;;;;;;;;;;;;;;5070937;28;19924;-76
2021/04/19 11:32:27;;;;;;;;;;;;;;;;;;5072114;28;20384;-76
2021/04/19 11:34:53;;;;;;;;;;;;;;;;;;5073038;28;19965;-76
2021/04/19 11:37:37;;;;;;;;;;;;;;;;;;5055377;28;19915;-76
2021/04/19 11:40:04;;;;;;;;;;;;;;;;;;5090687;28;20435;-76
2021/04/19 11:42:35;;;;;;;;;;;;;;;;;;5071016;28;19943;-77
2021/04/19 11:45:04;;;;;;;;;;;;;;;;;;5070587;28;19924;-77
2021/04/19 11:47:29;;;;;;;;;;;;;;;;;;5069497;28;19932;-77
2021/04/19 11:49:56;;;;;;;;;;;;;;;;;;5071174;28;19957;-77
2021/04/19 11:52:23;;;;;;;;;;;;;;;;;;5054390;28;20006;-77
2021/04/19 11:54:49;;;;;;;;;;;;;;;;;;5069728;28;20003;-77
2021/04/19 11:57:14;;;;;;;;;;;;;;;;;;5055260;28;19928;-77
2021/04/19 11:59:40;;;;;;;;;;;;;;;;;;5055112;28;19973;-77
2021/04/19 12:02:05;;;;;;;;;;;;;;;;;;5080110;28;20465;-77
2021/04/19 12:04:31;;;;;;;;;;;;;;;;;;5076204;28;20002;-77
2021/04/19 12:06:57;;;;;;;;;;;;;;;;;;5058947;28;19912;-77
2021/04/19 12:09:22;;;;;;;;;;;;;;;;;;5059543;28;19912;-77
2021/04/19 12:11:47;;;;;;;;;;;;;;;;;;5075805;28;19912;-77
2021/04/19 12:14:13;;;;;;;;;;;;;;;;;;5075466;28;19924;-77
2021/04/19 12:16:38;;;;;;;;;;;;;;;;;;5076120;28;19916;-77
2021/04/19 12:19:03;;;;;;;;;;;;;;;;;;5075919;28;19916;-77
2021/04/19 12:21:29;;;;;;;;;;;;;;;;;;5075578;28;20278;-77
2021/04/19 12:23:54;;;;;;;;;;;;;;;;;;5075784;28;19928;-77
2021/04/19 12:26:19;;;;;;;;;;;;;;;;;;5073704;28;19923;-77
2021/04/19 12:28:45;;;;;;;;;;;;;;;;;;5072898;28;19923;-77
2021/04/19 12:31:11;;;;;;;;;;;;;;;;;;5058073;28;19920;-79
2021/04/19 12:33:36;;;;;;;;;;;;;;;;;;5075758;28;19919;-77
2021/04/19 12:36:02;;;;;;;;;;;;;;;;;;5073689;28;19916;-77
2021/04/19 12:38:28;;;;;;;;;;;;;;;;;;5075327;28;19923;-77
2021/04/19 12:40:54;;;;;;;;;;;;;;;;;;5075641;28;19912;-77
2021/04/19 12:43:19;;;;;;;;;;;;;;;;;;5074457;28;20063;-77
2021/04/19 12:45:45;;;;;;;;;;;;;;;;;;5074821;28;19924;-77
2021/04/19 12:48:10;;;;;;;;;;;;;;;;;;5075406;28;19920;-78
2021/04/19 12:50:36;;;;;;;;;;;;;;;;;;5075468;28;19945;-77
2021/04/19 12:53:02;;;;;;;;;;;;;;;;;;5083769;28;19924;-78
2021/04/19 12:55:27;;;;;;;;;;;;;;;;;;5075357;28;20289;-77
2021/04/19 12:57:53;;;;;;;;;;;;;;;;;;5075154;28;19912;-78
2021/04/19 13:00:18;;;;;;;;;;;;;;;;;;5057263;28;20277;-77
2021/04/19 13:02:43;;;;;;;;;;;;;;;;;;5058323;28;19930;-77
2021/04/19 13:05:09;;;;;;;;;;;;;;;;;;5073106;28;19924;-77
2021/04/19 13:07:34;;;;;;;;;;;;;;;;;;5070712;28;19943;-77
2021/04/19 13:10:00;;;;;;;;;;;;;;;;;;5055689;28;19923;-77
2021/04/19 13:12:25;;;;;;;;;;;;;;;;;;5069204;28;19920;-77
2021/04/19 13:14:51;;;;;;;;;;;;;;;;;;5074148;28;19921;-77
2021/04/19 13:17:17;;;;;;;;;;;;;;;;;;5058300;28;19927;-77
2021/04/19 13:19:42;;;;;;;;;;;;;;;;;;5074997;28;19912;-77
2021/04/19 13:22:08;;;;;;;;;;;;;;;;;;5074672;28;19912;-76
2021/04/19 13:24:33;;;;;;;;;;;;;;;;;;5074621;28;19916;-76
2021/04/19 13:26:58;;;;;;;;;;;;;;;;;;5074658;28;19912;-77
2021/04/19 13:29:25;;;;;;;;;;;;;;;;;;5074928;28;19951;-77
2021/04/19 13:31:50;;;;;;;;;;;;;;;;;;5074930;28;19955;-76
2021/04/19 13:34:15;;;;;;;;;;;;;;;;;;5073952;28;20350;-77
2021/04/19 13:36:41;;;;;;;;;;;;;;;;;;5074481;28;19916;-77
2021/04/19 13:39:06;;;;;;;;;;;;;;;;;;5056780;28;19965;-77
2021/04/19 13:41:32;;;;;;;;;;;;;;;;;;5056396;28;19920;-76
2021/04/19 13:43:58;;;;;;;;;;;;;;;;;;5074024;28;19912;-76
2021/04/19 13:46:24;;;;;;;;;;;;;;;;;;5057704;28;19924;-76
2021/04/19 13:48:51;;;;;;;;;;;;;;;;;;5057254;28;20262;-77
2021/04/19 13:51:16;;;;;;;;;;;;;;;;;;5074243;28;19964;-77
2021/04/19 13:53:41;;;;;;;;;;;;;;;;;;5074507;28;19916;-77
2021/04/19 13:56:08;;;;;;;;;;;;;;;;;;5073617;28;20058;-77
2021/04/19 13:58:33;;;;;;;;;;;;;;;;;;5074033;28;19912;-77
2021/04/19 14:00:59;;;;;;;;;;;;;;;;;;5074001;28;19916;-77
2021/04/19 14:03:25;;;;;;;;;;;;;;;;;;5072041;28;20300;-77
2021/04/19 14:05:50;;;;;;;;;;;;;;;;;;5073335;28;19920;-77
2021/04/19 14:08:15;;;;;;;;;;;;;;;;;;5073926;28;19912;-77
2021/04/19 14:10:40;;;;;;;;;;;;;;;;;;5073651;28;19975;-78
2021/04/19 14:13:13;;;;;;;;;;;;;;;;;;5057088;28;19916;-77
2021/04/19 14:15:38;;;;;;;;;;;;;;;;;;5073854;28;19920;-78
2021/04/19 14:18:03;;;;;;;;;;;;;;;;;;5057096;28;20383;-78
2021/04/19 14:20:29;;;;;;;;;;;;;;;;;;5073606;28;19967;-77
2021/04/19 14:22:55;;;;;;;;;;;;;;;;;;5057203;28;19970;-77
2021/04/19 14:25:20;;;;;;;;;;;;;;;;;;5056181;28;19920;-77
2021/04/19 14:27:45;;;;;;;;;;;;;;;;;;5073530;28;20309;-76
2021/04/19 14:30:11;;;;;;;;;;;;;;;;;;5056930;28;19920;-77
2021/04/19 14:32:37;;;;;;;;;;;;;;;;;;5073183;28;19912;-77
2021/04/19 14:35:02;;;;;;;;;;;;;;;;;;5064393;28;19912;-77
2021/04/19 14:37:28;;;;;;;;;;;;;;;;;;5056041;28;19912;-77
2021/04/19 14:39:53;;;;;;;;;;;;;;;;;;5072514;28;20009;-77
2021/04/19 14:42:18;;;;;;;;;;;;;;;;;;5072724;28;20341;-77
2021/04/19 14:44:44;;;;;;;;;;;;;;;;;;5072215;28;19924;-77
2021/04/19 14:47:09;;;;;;;;;;;;;;;;;;5072591;28;19931;-77
2021/04/19 14:49:37;;;;;;;;;;;;;;;;;;5072938;28;19916;-77
2021/04/19 14:52:02;;;;;;;;;;;;;;;;;;5072248;28;19912;-76
2021/04/19 14:54:28;;;;;;;;;;;;;;;;;;5055621;28;20293;-76
2021/04/19 14:56:53;;;;;;;;;;;;;;;;;;5081327;28;19908;-76
2021/04/19 14:59:18;;;;;;;;;;;;;;;;;;5071758;28;20818;-76
2021/04/19 15:01:44;;;;;;;;;;;;;;;;;;5069710;28;20300;-76
2021/04/19 15:04:09;;;;;;;;;;;;;;;;;;5073471;28;19938;-75
2021/04/19 15:06:35;;;;;;;;;;;;;;;;;;5055490;28;19938;-76
2021/04/19 15:09:00;;;;;;;;;;;;;;;;;;5072600;28;19931;-77
2021/04/19 15:11:25;;;;;;;;;;;;;;;;;;5073324;28;19916;-77
2021/04/19 15:13:51;;;;;;;;;;;;;;;;;;5072496;28;19916;-76
2021/04/19 15:16:16;;;;;;;;;;;;;;;;;;5055902;28;20389;-76
2021/04/19 15:18:41;;;;;;;;;;;;;;;;;;5056531;28;19923;-76
2021/04/19 15:21:07;;;;;;;;;;;;;;;;;;5073182;28;19912;-76
2021/04/19 15:23:33;;;;;;;;;;;;;;;;;;5072525;28;19919;-76
2021/04/19 15:25:58;;;;;;;;;;;;;;;;;;5063827;28;20053;-76
2021/04/19 15:28:23;;;;;;;;;;;;;;;;;;5072977;28;20285;-76
2021/04/19 15:30:48;;;;;;;;;;;;;;;;;;5072855;28;19912;-76
2021/04/19 15:33:14;;;;;;;;;;;;;;;;;;5072807;28;19924;-76
2021/04/19 15:35:43;;;;;;;;;;;;;;;;;;5072789;28;19920;-76
2021/04/19 15:38:08;;;;;;;;;;;;;;;;;;5066433;28;20027;-76
2021/04/19 15:40:34;;;;;;;;;;;;;;;;;;5059292;28;20942;-76
2021/04/19 15:42:59;;;;;;;;;;;;;;;;;;5076673;28;19927;-76
2021/04/19 15:45:24;;;;;;;;;;;;;;;;;;5076369;28;20363;-76
2021/04/19 15:47:49;;;;;;;;;;;;;;;;;;5093438;28;19920;-76
2021/04/19 15:50:15;;;;;;;;;;;;;;;;;;5092936;28;19966;-76
2021/04/19 15:52:40;;;;;;;;;;;;;;;;;;5076096;28;20339;-77
2021/04/19 15:55:05;;;;;;;;;;;;;;;;;;5076800;28;20263;-76
2021/04/19 15:57:31;;;;;;;;;;;;;;;;;;5076306;28;19919;-76
2021/04/19 15:59:56;;;;;;;;;;;;;;;;;;5076355;28;19912;-76
2021/04/19 16:02:22;;;;;;;;;;;;;;;;;;5076248;28;19970;-76
2021/04/19 16:04:47;;;;;;;;;;;;;;;;;;5059376;28;19912;-76
2021/04/19 16:07:13;;;;;;;;;;;;;;;;;;5075793;28;19912;-76
2021/04/19 16:09:38;;;;;;;;;;;;;;;;;;5076692;28;19961;-76
2021/04/19 16:12:03;;;;;;;;;;;;;;;;;;5059368;28;19973;-76
2021/04/19 16:14:29;;;;;;;;;;;;;;;;;;5074091;28;19920;-76
2021/04/19 16:16:54;;;;;;;;;;;;;;;;;;5076066;28;19923;-76
2021/04/19 16:19:19;;;;;;;;;;;;;;;;;;5059487;28;19963;-76
2021/04/19 16:21:44;;;;;;;;;;;;;;;;;;5058343;28;20018;-76
2021/04/19 16:24:10;;;;;;;;;;;;;;;;;;5076102;28;19931;-76
2021/04/19 16:26:35;;;;;;;;;;;;;;;;;;5075682;28;20035;-76
2021/04/19 16:29:00;;;;;;;;;;;;;;;;;;5076005;28;19968;-76
2021/04/19 16:31:26;;;;;;;;;;;;;;;;;;5075512;28;19912;-76
2021/04/19 16:33:51;;;;;;;;;;;;;;;;;;5076008;28;19912;-76
2021/04/19 16:36:16;;;;;;;;;;;;;;;;;;5058441;28;19912;-77
2021/04/19 16:38:42;;;;;;;;;;;;;;;;;;5075753;28;19923;-76
2021/04/19 16:41:07;;;;;;;;;;;;;;;;;;5076187;28;19912;-76
2021/04/19 16:43:33;;;;;;;;;;;;;;;;;;5075695;28;20395;-76